createdAt,value
2023-01-22T00:03:49.690Z,1.40
2023-01-22T00:18:51.731Z,1.40
2023-01-22T00:33:53.655Z,1.40
2023-01-22T00:48:55.567Z,1.40
2023-01-22T01:03:57.511Z,1.30
2023-01-22T01:19:01.690Z,1.60
2023-01-22T01:34:03.863Z,1.40
2023-01-22T01:49:06.301Z,1.50
2023-01-22T02:04:08.762Z,1.40
2023-01-22T02:19:10.715Z,1.40
2023-01-22T02:34:12.648Z,1.40
2023-01-22T02:49:14.627Z,1.40
2023-01-22T03:04:16.604Z,1.50
2023-01-22T03:19:38.941Z,1.40
2023-01-22T03:34:41.223Z,1.40
2023-01-22T03:49:43.144Z,1.30
2023-01-22T04:04:45.160Z,1.40
2023-01-22T04:19:47.064Z,1.40
2023-01-22T04:34:48.961Z,1.40
2023-01-22T04:49:50.980Z,1.40
2023-01-22T05:04:53.069Z,1.50
2023-01-22T05:19:54.976Z,1.40
2023-01-22T05:34:56.960Z,1.40
2023-01-22T05:49:58.891Z,1.40
2023-01-22T06:05:00.834Z,1.40
2023-01-22T06:20:03.148Z,1.40
2023-01-22T06:35:05.478Z,1.40
2023-01-22T06:50:07.862Z,1.60
2023-01-22T07:05:10.075Z,1.50
2023-01-22T07:20:12.277Z,1.70
2023-01-22T07:35:14.734Z,1.70
2023-01-22T07:50:16.896Z,1.70
2023-01-22T08:05:19.219Z,1.80
2023-01-22T08:20:21.759Z,1.90
2023-01-22T08:35:24.594Z,1.70
2023-01-22T08:50:28.845Z,1.90
2023-01-22T09:05:30.785Z,1.80
2023-01-22T09:20:32.802Z,1.80
2023-01-22T09:35:34.837Z,1.80
2023-01-22T09:50:37.732Z,1.90
2023-01-22T10:05:44.267Z,1.90
2023-01-22T10:20:46.467Z,1.80
2023-01-22T10:35:50.633Z,1.60
2023-01-22T10:51:03.779Z,1.60
2023-01-22T11:06:31.988Z,1.80
2023-01-22T11:21:45.511Z,1.90
2023-01-22T11:37:14.275Z,2.00
2023-01-22T11:52:45.878Z,1.60
2023-01-22T12:07:56.756Z,1.80
2023-01-22T12:23:08.301Z,1.90
2023-01-22T12:38:29.218Z,1.90
2023-01-22T12:53:34.827Z,1.90
2023-01-22T13:08:43.109Z,2.00
2023-01-22T13:23:47.866Z,1.90
2023-01-22T13:38:58.764Z,2.00
2023-01-22T13:54:02.119Z,2.20
2023-01-22T14:09:04.218Z,2.30
2023-01-22T14:24:06.655Z,2.30
2023-01-22T14:39:08.705Z,2.30
2023-01-22T14:54:10.675Z,2.30
2023-01-22T15:09:12.654Z,2.20
2023-01-22T15:24:14.607Z,2.20
2023-01-22T15:39:16.978Z,2.10
2023-01-22T15:54:19.260Z,2.00
2023-01-22T16:09:21.236Z,1.90
2023-01-22T16:24:23.230Z,1.90
2023-01-22T16:39:28.256Z,1.70
2023-01-22T16:54:34.031Z,1.50
2023-01-22T17:09:36.432Z,1.40
2023-01-22T17:24:38.593Z,1.30
2023-01-22T17:39:42.869Z,1.30
2023-01-22T17:54:44.801Z,1.40
2023-01-22T18:09:47.226Z,1.40
2023-01-22T18:24:49.136Z,1.40
2023-01-22T18:39:51.253Z,1.40
2023-01-22T18:54:53.249Z,1.40
2023-01-22T19:09:55.164Z,1.50
2023-01-22T19:24:57.522Z,1.50
2023-01-22T19:39:59.807Z,1.60
2023-01-22T19:55:01.766Z,1.60
2023-01-22T20:10:04.367Z,1.70
2023-01-22T20:25:08.197Z,1.70
2023-01-22T20:40:12.077Z,1.80
2023-01-22T20:55:15.628Z,1.80
2023-01-22T21:10:17.926Z,1.80
2023-01-22T21:25:20.018Z,1.70
2023-01-22T21:40:22.008Z,1.80
2023-01-22T21:55:24.109Z,1.90
2023-01-22T22:10:26.027Z,1.90
2023-01-22T22:25:28.141Z,1.80
2023-01-22T22:40:30.038Z,1.90
2023-01-22T22:55:32.082Z,2.00
2023-01-22T23:10:34.122Z,1.90
2023-01-22T23:25:36.044Z,2.00
2023-01-22T23:40:37.988Z,2.00
2023-01-22T23:55:39.985Z,1.90
